Time;durP1;ratioP1;P1;durP2;ratioP2;P2;SDS_P1;SDS_P2;PMS_P1;PMS_P2;Temp;Humidity;BMP_temperature;BMP_pressure;BME280_temperature;BME280_humidity;BME280_pressure;Samples;Min_cycle;Max_cycle;Signal;HPM_P1;HPM_P2
2020/12/31 00:02:52;;;;;;;11.73;8.30;;;2.60;99.90;;;;;;6186670;28;20089;-76
2020/12/31 00:05:53;;;;;;;10.90;7.83;;;2.60;99.90;;;;;;6187400;28;20127;-75
2020/12/31 00:08:54;;;;;;;10.17;7.50;;;2.60;99.90;;;;;;6185920;28;20046;-75
2020/12/31 00:11:57;;;;;;;7.10;5.87;;;2.70;99.90;;;;;;6179478;28;20050;-74
2020/12/31 00:14:59;;;;;;;8.33;6.80;;;2.70;99.90;;;;;;6173881;28;20428;-74
2020/12/31 00:18:00;;;;;;;10.93;7.53;;;2.70;99.90;;;;;;6176224;28;20047;-74
2020/12/31 00:21:02;;;;;;;8.73;5.90;;;2.70;99.90;;;;;;6175941;28;20055;-74
2020/12/31 00:24:06;;;;;;;8.67;6.83;;;2.70;99.80;;;;;;6176179;28;20142;-75
2020/12/31 00:27:08;;;;;;;9.83;6.80;;;2.60;99.70;;;;;;6176232;28;20046;-74
2020/12/31 00:30:16;;;;;;;7.70;6.83;;;2.60;99.80;;;;;;6175784;28;20428;-74
2020/12/31 00:33:18;;;;;;;10.57;7.28;;;2.50;99.80;;;;;;6175556;28;20539;-75
2020/12/31 00:36:20;;;;;;;8.43;6.60;;;2.60;99.90;;;;;;6175220;28;20051;-75
2020/12/31 00:39:21;;;;;;;9.23;7.10;;;2.60;99.90;;;;;;6176344;28;20059;-75
2020/12/31 00:42:24;;;;;;;10.63;8.03;;;2.60;99.90;;;;;;6175368;28;20061;-74
2020/12/31 00:45:26;;;;;;;9.97;8.60;;;2.70;99.90;;;;;;6174800;28;20398;-74
2020/12/31 00:48:27;;;;;;;8.73;6.83;;;2.70;99.90;;;;;;6175596;28;20051;-74
2020/12/31 00:51:28;;;;;;;9.50;6.77;;;2.70;99.90;;;;;;6175569;28;20055;-74
2020/12/31 00:54:29;;;;;;;9.53;7.30;;;2.80;99.70;;;;;;6175260;28;20053;-75
2020/12/31 00:57:32;;;;;;;9.83;7.40;;;2.80;99.60;;;;;;6176049;28;20402;-74
2020/12/31 01:00:33;;;;;;;8.93;6.50;;;2.80;99.40;;;;;;6174851;28;20078;-74
2020/12/31 01:03:35;;;;;;;9.90;6.53;;;2.70;99.50;;;;;;6175530;28;20105;-74
2020/12/31 01:06:37;;;;;;;8.40;6.03;;;2.60;99.60;;;;;;6174849;28;20046;-75
2020/12/31 01:09:38;;;;;;;6.23;5.63;;;2.60;99.60;;;;;;6174865;28;20046;-75
2020/12/31 01:12:40;;;;;;;7.43;5.87;;;2.50;99.60;;;;;;6174864;28;20053;-75
2020/12/31 01:15:41;;;;;;;6.27;5.30;;;2.50;99.60;;;;;;6175647;28;20061;-74
2020/12/31 01:18:43;;;;;;;6.27;5.10;;;2.30;99.40;;;;;;6174827;28;20046;-74
2020/12/31 01:21:45;;;;;;;7.33;5.67;;;2.20;99.40;;;;;;6174374;28;20126;-75
2020/12/31 01:24:46;;;;;;;9.00;6.97;;;2.10;99.40;;;;;;6174718;28;20520;-75
2020/12/31 01:27:48;;;;;;;9.10;6.03;;;2.00;99.40;;;;;;6174677;28;20141;-74
2020/12/31 01:30:50;;;;;;;8.80;6.50;;;1.90;99.60;;;;;;6174405;28;20052;-74
2020/12/31 01:33:51;;;;;;;7.93;6.27;;;1.70;99.70;;;;;;6174283;28;20046;-75
2020/12/31 01:36:53;;;;;;;7.73;5.40;;;1.60;99.70;;;;;;6174686;28;20057;-75
2020/12/31 01:39:54;;;;;;;6.57;5.47;;;1.60;99.70;;;;;;6174581;28;20054;-74
2020/12/31 01:42:56;;;;;;;10.83;7.30;;;1.50;99.80;;;;;;6173900;28;20055;-75
2020/12/31 01:45:58;;;;;;;9.00;7.30;;;1.50;99.80;;;;;;6174442;28;20472;-74
2020/12/31 01:49:00;;;;;;;8.23;5.87;;;1.40;99.80;;;;;;6181508;28;20053;-75
2020/12/31 01:52:03;;;;;;;8.33;5.60;;;1.30;99.60;;;;;;6198468;28;20089;-74
2020/12/31 01:55:04;;;;;;;8.93;6.60;;;1.20;99.60;;;;;;6197878;28;20050;-74
2020/12/31 01:58:06;;;;;;;8.27;6.60;;;1.20;99.60;;;;;;6197923;28;20047;-74
2020/12/31 02:01:08;;;;;;;9.00;6.03;;;1.00;99.50;;;;;;6197939;28;20051;-74
2020/12/31 02:04:09;;;;;;;8.67;6.50;;;0.90;99.50;;;;;;6198045;28;20634;-74
2020/12/31 02:07:11;;;;;;;7.50;6.13;;;0.80;99.60;;;;;;6198150;28;20586;-74
2020/12/31 02:10:13;;;;;;;7.27;5.80;;;0.80;99.70;;;;;;6198085;28;20046;-74
2020/12/31 02:13:15;;;;;;;12.47;6.40;;;0.70;99.70;;;;;;6197466;28;20054;-74
2020/12/31 02:16:18;;;;;;;8.27;6.50;;;0.60;99.70;;;;;;6197973;28;20054;-74
2020/12/31 02:19:19;;;;;;;9.90;6.40;;;0.60;99.70;;;;;;6197917;28;20097;-74
2020/12/31 02:22:22;;;;;;;7.60;5.20;;;0.50;99.80;;;;;;6197120;28;20129;-74
2020/12/31 02:25:23;;;;;;;11.67;6.77;;;0.50;99.80;;;;;;6197664;28;20508;-74
2020/12/31 02:28:24;;;;;;;8.67;5.87;;;0.50;99.90;;;;;;6198198;28;20050;-75
2020/12/31 02:31:27;;;;;;;8.07;6.73;;;0.50;99.90;;;;;;6198081;28;20129;-75
2020/12/31 02:34:28;;;;;;;12.17;7.20;;;0.40;99.90;;;;;;6197377;28;20104;-75
2020/12/31 02:37:31;;;;;;;9.37;6.90;;;0.40;99.90;;;;;;6197977;28;20061;-74
2020/12/31 02:40:32;;;;;;;10.13;7.33;;;0.40;99.90;;;;;;6198000;28;20057;-74
2020/12/31 02:43:34;;;;;;;8.20;5.93;;;0.40;99.90;;;;;;6198582;28;20185;-74
2020/12/31 02:46:36;;;;;;;9.87;7.03;;;0.40;99.90;;;;;;6198924;28;20062;-75
2020/12/31 02:49:37;;;;;;;13.63;6.10;;;0.40;99.90;;;;;;6198845;28;20047;-75
2020/12/31 02:52:39;;;;;;;10.17;6.57;;;0.30;99.90;;;;;;6212790;28;20036;-75
2020/12/31 02:55:41;;;;;;;8.77;6.93;;;0.30;99.90;;;;;;6231122;28;20094;-75
2020/12/31 02:58:42;;;;;;;12.23;7.17;;;0.20;99.90;;;;;;6229386;28;20045;-74
2020/12/31 03:01:44;;;;;;;9.37;7.43;;;0.30;99.90;;;;;;6229149;28;20046;-74
2020/12/31 03:04:45;;;;;;;11.73;8.93;;;0.30;99.90;;;;;;6228858;28;20125;-74
2020/12/31 03:07:47;;;;;;;11.87;6.90;;;0.30;99.90;;;;;;6228332;28;20102;-75
2020/12/31 03:10:50;;;;;;;14.50;8.10;;;0.30;99.90;;;;;;6227638;28;20054;-74
2020/12/31 03:13:52;;;;;;;9.10;7.17;;;0.40;99.90;;;;;;6212995;28;20054;-74
2020/12/31 03:16:54;;;;;;;10.10;7.27;;;0.50;99.90;;;;;;6203953;28;20125;-74
2020/12/31 03:19:55;;;;;;;8.03;6.17;;;0.50;99.90;;;;;;6198582;28;20459;-74
2020/12/31 03:22:57;;;;;;;8.30;6.87;;;0.60;99.90;;;;;;6197002;28;20540;-75
2020/12/31 03:25:58;;;;;;;8.40;6.57;;;0.60;99.90;;;;;;6198329;28;20050;-74
2020/12/31 03:28:59;;;;;;;10.53;7.10;;;0.50;99.90;;;;;;6196292;28;20396;-74
2020/12/31 03:32:01;;;;;;;8.73;6.70;;;0.40;99.90;;;;;;6196724;28;20416;-74
2020/12/31 03:35:02;;;;;;;9.37;6.47;;;0.40;99.90;;;;;;6196838;28;20527;-74
2020/12/31 03:38:04;;;;;;;10.27;7.27;;;0.40;99.90;;;;;;6196745;28;20427;-74
2020/12/31 03:41:06;;;;;;;9.03;6.23;;;0.40;99.90;;;;;;6196030;28;20053;-74
2020/12/31 03:44:07;;;;;;;7.23;5.77;;;0.40;99.90;;;;;;6194282;23;20078;-78
2020/12/31 03:47:08;;;;;;;9.57;6.27;;;0.40;99.90;;;;;;6175921;28;20134;-78
2020/12/31 03:50:10;;;;;;;7.63;6.13;;;0.30;99.90;;;;;;6175081;28;20446;-78
2020/12/31 03:53:12;;;;;;;7.70;5.47;;;0.30;99.90;;;;;;6175032;28;20051;-78
2020/12/31 03:56:14;;;;;;;6.90;5.53;;;0.30;99.90;;;;;;6174800;28;20047;-77
2020/12/31 03:59:15;;;;;;;11.03;6.20;;;0.20;99.90;;;;;;6175786;28;20051;-78
2020/12/31 04:02:16;;;;;;;7.40;6.43;;;0.30;99.90;;;;;;6175075;28;20058;-78
2020/12/31 04:05:17;;;;;;;9.13;7.30;;;0.20;99.90;;;;;;6175261;28;20182;-78
2020/12/31 04:08:20;;;;;;;11.07;6.00;;;0.20;99.90;;;;;;6175130;28;20138;-78
2020/12/31 04:11:21;;;;;;;7.13;5.03;;;0.10;99.90;;;;;;6175605;28;20055;-78
2020/12/31 04:14:22;;;;;;;9.50;6.00;;;0.00;99.90;;;;;;6175030;28;20077;-78
2020/12/31 04:17:23;;;;;;;10.37;7.07;;;0.00;99.90;;;;;;6175649;28;20066;-78
2020/12/31 04:20:25;;;;;;;7.40;5.30;;;-0.10;99.90;;;;;;6174409;28;20129;-77
2020/12/31 04:23:27;;;;;;;7.80;5.47;;;-0.10;99.90;;;;;;6179393;28;20213;-78
2020/12/31 04:26:28;;;;;;;8.00;5.90;;;-0.10;99.90;;;;;;6179248;28;20456;-77
2020/12/31 04:29:30;;;;;;;9.53;7.17;;;-0.10;99.90;;;;;;6179094;28;20039;-78
2020/12/31 04:32:31;;;;;;;6.97;4.70;;;-0.20;99.90;;;;;;6179004;28;20062;-78
2020/12/31 04:35:32;;;;;;;9.50;5.50;;;-0.20;99.90;;;;;;6179742;28;20757;-78
2020/12/31 04:38:35;;;;;;;10.40;5.93;;;-0.20;99.90;;;;;;6178859;28;20042;-78
2020/12/31 04:41:36;;;;;;;8.07;6.40;;;-0.20;99.90;;;;;;6178648;28;20104;-78
2020/12/31 04:44:37;;;;;;;6.73;5.53;;;-0.20;99.90;;;;;;6176904;28;20039;-77
2020/12/31 04:47:44;;;;;;;9.97;5.80;;;-0.20;99.90;;;;;;6174996;28;20051;-76
2020/12/31 04:50:48;;;;;;;8.40;5.50;;;-0.20;99.90;;;;;;6174854;28;20047;-77
2020/12/31 04:53:51;;;;;;;6.83;5.50;;;-0.20;99.90;;;;;;6174865;28;20047;-77
2020/12/31 04:56:54;;;;;;;8.37;5.83;;;-0.20;99.90;;;;;;6175154;28;20416;-77
2020/12/31 04:59:55;;;;;;;7.37;4.73;;;-0.30;99.90;;;;;;6175216;28;20054;-77
2020/12/31 05:02:57;;;;;;;7.70;5.60;;;-0.30;99.90;;;;;;6174683;28;20413;-78
2020/12/31 05:06:03;;;;;;;10.50;5.93;;;-0.20;99.90;;;;;;6175256;28;20050;-77
2020/12/31 05:09:17;;;;;;;8.43;5.40;;;-0.20;99.90;;;;;;6174997;28;20057;-77
2020/12/31 05:12:28;;;;;;;9.17;5.73;;;-0.20;99.90;;;;;;6175040;28;20059;-77
2020/12/31 05:15:37;;;;;;;7.53;5.83;;;-0.30;99.90;;;;;;6175880;28;20105;-77
2020/12/31 05:18:39;;;;;;;7.57;4.83;;;-0.30;99.90;;;;;;6175195;28;20122;-77
2020/12/31 05:21:40;;;;;;;11.60;5.17;;;-0.30;99.90;;;;;;6171244;28;20043;-78
2020/12/31 05:24:44;;;;;;;10.63;5.67;;;-0.30;99.90;;;;;;6152247;28;20043;-78
2020/12/31 05:27:45;;;;;;;7.43;5.93;;;-0.30;99.90;;;;;;6165321;28;20083;-78
2020/12/31 05:30:49;;;;;;;4.70;3.87;;;-0.30;99.90;;;;;;6159697;28;20096;-77
2020/12/31 05:33:50;;;;;;;9.20;5.40;;;-0.30;99.90;;;;;;6156727;28;20059;-77
2020/12/31 05:36:51;;;;;;;5.00;4.37;;;-0.30;99.90;;;;;;6157761;28;20058;-77
2020/12/31 05:40:05;;;;;;;6.57;4.43;;;-0.30;99.90;;;;;;6169970;28;20069;-77
2020/12/31 05:43:06;;;;;;;8.43;5.27;;;-0.20;99.90;;;;;;6171212;28;20058;-77
2020/12/31 05:46:10;;;;;;;10.10;4.60;;;-0.20;99.90;;;;;;6173752;28;20050;-77
2020/12/31 05:49:11;;;;;;;9.53;5.03;;;-0.20;99.90;;;;;;6174105;28;20098;-77
2020/12/31 05:52:32;;;;;;;7.27;5.23;;;-0.20;99.90;;;;;;6174047;28;20054;-78
2020/12/31 05:55:37;;;;;;;6.17;4.33;;;-0.10;99.90;;;;;;6173565;28;20101;-77
2020/12/31 05:58:44;;;;;;;8.50;4.53;;;-0.10;99.90;;;;;;6172734;28;20054;-78
2020/12/31 06:01:55;;;;;;;5.70;4.43;;;0.00;99.90;;;;;;6166243;28;20054;-77
2020/12/31 06:05:04;;;;;;;6.60;4.50;;;0.00;99.90;;;;;;6172443;28;20054;-77
2020/12/31 06:08:05;;;;;;;9.37;5.63;;;0.00;99.90;;;;;;6174249;28;20054;-77
2020/12/31 06:11:15;;;;;;;8.10;5.23;;;0.00;99.90;;;;;;6171808;28;20047;-77
2020/12/31 06:14:25;;;;;;;7.00;6.13;;;0.10;99.90;;;;;;6173148;28;20503;-77
2020/12/31 06:17:27;;;;;;;6.30;5.70;;;0.20;99.90;;;;;;6152805;28;20097;-78
2020/12/31 06:20:29;;;;;;;6.07;4.60;;;0.20;99.90;;;;;;6173853;28;20114;-77
2020/12/31 06:23:37;;;;;;;6.20;4.53;;;0.30;99.90;;;;;;6173886;28;20055;-77
2020/12/31 06:26:41;;;;;;;7.28;4.45;;;0.30;99.90;;;;;;6172662;28;20049;-77
2020/12/31 06:29:46;;;;;;;5.53;3.57;;;0.30;99.90;;;;;;6171746;28;20058;-77
2020/12/31 06:32:48;;;;;;;6.90;4.17;;;0.40;99.90;;;;;;6170490;28;20054;-77
2020/12/31 06:35:54;;;;;;;13.20;4.97;;;0.40;99.90;;;;;;6171427;28;20047;-77
2020/12/31 06:38:55;;;;;;;9.17;5.13;;;0.40;99.90;;;;;;6170610;28;20081;-77
2020/12/31 06:41:57;;;;;;;8.13;5.17;;;0.40;99.90;;;;;;6170289;28;20428;-77
2020/12/31 06:44:59;;;;;;;5.87;3.97;;;0.50;99.90;;;;;;6170267;28;20066;-77
2020/12/31 06:48:00;;;;;;;7.60;4.60;;;0.50;99.90;;;;;;6170406;28;20486;-77
2020/12/31 06:51:03;;;;;;;4.93;4.53;;;0.40;99.90;;;;;;6172376;28;20038;-77
2020/12/31 06:54:05;;;;;;;7.03;4.10;;;0.40;99.90;;;;;;6170476;28;20239;-77
2020/12/31 06:57:07;;;;;;;6.47;4.10;;;0.30;99.90;;;;;;6170866;28;20053;-77
2020/12/31 07:00:29;;;;;;;6.40;4.83;;;0.30;99.90;;;;;;6173371;28;20412;-77
2020/12/31 07:03:47;;;;;;;7.07;4.50;;;0.30;99.90;;;;;;6155933;28;20047;-77
2020/12/31 07:06:48;;;;;;;6.93;4.35;;;0.30;99.90;;;;;;6168943;28;20058;-76
2020/12/31 07:09:51;;;;;;;6.47;4.90;;;0.20;99.90;;;;;;6169842;28;20142;-76
2020/12/31 07:12:53;;;;;;;5.10;3.33;;;0.30;99.90;;;;;;6159834;28;20519;-79
2020/12/31 07:15:55;;;;;;;4.60;3.47;;;0.30;99.90;;;;;;6160677;28;20055;-78
2020/12/31 07:18:57;;;;;;;6.70;3.97;;;0.30;99.90;;;;;;6164808;28;20133;-77
2020/12/31 07:21:58;;;;;;;5.50;4.03;;;0.40;99.90;;;;;;6164431;28;20058;-76
2020/12/31 07:25:04;;;;;;;4.83;3.50;;;0.40;99.90;;;;;;6172198;28;20431;-77
2020/12/31 07:28:06;;;;;;;5.43;4.00;;;0.40;99.90;;;;;;6162795;28;20566;-77
2020/12/31 07:31:07;;;;;;;6.57;3.60;;;0.50;99.90;;;;;;6157766;28;20044;-77
2020/12/31 07:34:22;;;;;;;7.30;3.63;;;0.60;99.90;;;;;;6166783;28;20198;-77
2020/12/31 07:37:23;;;;;;;5.93;3.50;;;0.60;99.90;;;;;;6157629;28;20157;-77
2020/12/31 07:40:33;;;;;;;4.83;3.40;;;0.70;99.90;;;;;;6164477;28;20054;-77
2020/12/31 07:43:35;;;;;;;6.13;4.23;;;0.70;99.90;;;;;;6165114;28;20051;-77
2020/12/31 07:46:37;;;;;;;4.13;3.13;;;0.80;99.90;;;;;;6164747;28;20042;-77
2020/12/31 07:49:43;;;;;;;3.80;2.97;;;0.90;99.90;;;;;;6165617;28;20055;-77
2020/12/31 07:52:45;;;;;;;4.93;4.00;;;0.90;99.80;;;;;;6165312;28;20054;-77
2020/12/31 07:55:48;;;;;;;46.50;22.30;;;1.00;99.70;;;;;;6166905;28;20089;-77
2020/12/31 07:58:50;;;;;;;28.10;16.27;;;1.00;99.60;;;;;;6169815;28;20178;-77
2020/12/31 08:01:51;;;;;;;17.07;9.90;;;1.10;99.70;;;;;;6171122;28;20207;-77
2020/12/31 08:04:53;;;;;;;99.87;49.17;;;1.20;99.70;;;;;;6162882;28;20114;-77
2020/12/31 08:07:55;;;;;;;21.93;16.57;;;1.20;99.60;;;;;;6172287;28;20563;-77
2020/12/31 08:10:57;;;;;;;129.13;65.77;;;1.30;99.60;;;;;;6175290;28;20487;-76
2020/12/31 08:14:03;;;;;;;86.40;39.50;;;1.30;99.60;;;;;;6159551;28;20051;-77
2020/12/31 08:17:04;;;;;;;290.60;143.43;;;1.50;99.80;;;;;;6165124;28;20047;-77
2020/12/31 08:20:08;;;;;;;122.10;62.37;;;1.60;99.80;;;;;;6168415;28;20077;-77
2020/12/31 08:23:15;;;;;;;60.43;33.67;;;1.70;99.70;;;;;;6164614;28;20047;-77
2020/12/31 08:26:18;;;;;;;35.67;21.35;;;1.80;99.30;;;;;;6167643;28;20046;-77
2020/12/31 08:29:21;;;;;;;7.57;5.50;;;1.80;99.20;;;;;;6165251;28;20047;-77
2020/12/31 08:32:25;;;;;;;42.67;29.93;;;1.80;99.20;;;;;;6168110;28;20062;-78
2020/12/31 08:35:28;;;;;;;19.50;12.47;;;1.90;99.20;;;;;;6170512;28;20055;-77
2020/12/31 08:38:37;;;;;;;6.17;4.70;;;2.10;99.90;;;;;;6168298;28;20150;-76
2020/12/31 08:41:50;;;;;;;6.90;6.03;;;2.20;99.90;;;;;;6165930;28;20038;-77
2020/12/31 08:44:56;;;;;;;6.87;5.00;;;2.20;99.80;;;;;;6166991;28;20122;-77
2020/12/31 08:48:21;;;;;;;5.20;4.33;;;2.10;99.60;;;;;;6166427;28;20141;-77
2020/12/31 08:51:28;;;;;;;5.13;4.07;;;2.10;99.50;;;;;;6164520;28;20039;-77
2020/12/31 08:54:29;;;;;;;3.97;3.50;;;2.10;99.60;;;;;;6166596;28;20129;-77
2020/12/31 08:57:30;;;;;;;5.50;4.13;;;2.10;99.80;;;;;;6168767;28;20089;-77
2020/12/31 09:00:37;;;;;;;6.10;4.73;;;2.10;99.90;;;;;;6172307;28;20043;-78
2020/12/31 09:03:38;;;;;;;10.23;5.70;;;2.10;99.70;;;;;;6170023;28;20146;-77
2020/12/31 09:06:42;;;;;;;7.07;4.30;;;2.10;99.60;;;;;;6171963;28;20054;-77
2020/12/31 09:09:43;;;;;;;9.20;5.17;;;2.10;99.80;;;;;;6160914;28;20129;-77
2020/12/31 09:12:46;;;;;;;7.90;4.77;;;2.10;99.80;;;;;;6166699;28;20604;-77
2020/12/31 09:15:48;;;;;;;6.50;4.40;;;2.10;99.90;;;;;;6162631;28;20187;-77
2020/12/31 09:18:57;;;;;;;6.87;4.53;;;2.00;99.90;;;;;;6169660;28;20188;-77
2020/12/31 09:21:59;;;;;;;7.53;4.63;;;2.00;99.80;;;;;;6164341;28;20057;-77
2020/12/31 09:25:10;;;;;;;6.63;3.87;;;2.00;99.80;;;;;;6162112;28;20069;-77
2020/12/31 09:28:11;;;;;;;5.67;4.27;;;1.90;99.90;;;;;;6164348;28;20423;-77
2020/12/31 09:31:21;;;;;;;7.83;4.70;;;2.00;99.90;;;;;;6165958;28;20050;-77
2020/12/31 09:34:22;;;;;;;4.23;3.83;;;2.00;99.90;;;;;;6162815;28;20062;-77
2020/12/31 09:37:23;;;;;;;28.07;10.33;;;2.00;99.90;;;;;;6174172;28;20122;-76
2020/12/31 09:40:25;;;;;;;21.03;9.90;;;2.10;99.90;;;;;;6163313;28;20046;-77
2020/12/31 09:43:26;;;;;;;14.60;8.93;;;2.30;99.90;;;;;;6167875;28;20138;-76
2020/12/31 09:46:29;;;;;;;13.97;8.97;;;2.70;99.90;;;;;;6165883;28;20069;-78
2020/12/31 09:49:30;;;;;;;12.75;8.05;;;2.70;99.90;;;;;;6167700;28;20492;-76
2020/12/31 09:52:32;;;;;;;11.15;6.13;;;2.90;99.90;;;;;;6167129;28;20051;-76
2020/12/31 09:55:34;;;;;;;6.97;5.82;;;3.30;99.90;;;;;;6167494;28;20137;-77
2020/12/31 09:58:35;;;;;;;4.97;3.77;;;3.00;99.90;;;;;;6156744;28;20055;-78
2020/12/31 10:01:37;;;;;;;6.53;4.53;;;2.80;99.90;;;;;;6169042;28;20050;-77
2020/12/31 10:04:40;;;;;;;5.18;2.95;;;2.70;99.90;;;;;;6166146;28;20049;-77
2020/12/31 10:07:42;;;;;;;5.95;3.25;;;2.60;99.90;;;;;;6152604;28;20058;-76
2020/12/31 10:10:43;;;;;;;7.40;2.90;;;2.60;99.90;;;;;;6158835;28;20050;-76
2020/12/31 10:13:44;;;;;;;4.05;3.00;;;2.60;99.90;;;;;;6164054;28;20062;-76
2020/12/31 10:16:46;;;;;;;4.45;3.25;;;2.70;99.90;;;;;;6170302;28;20057;-79
2020/12/31 10:19:48;;;;;;;5.00;3.90;;;2.80;99.90;;;;;;6169180;28;20043;-77
2020/12/31 10:22:49;;;;;;;5.38;4.88;;;2.90;99.90;;;;;;6169987;28;20759;-77
2020/12/31 10:25:51;;;;;;;4.80;3.80;;;2.80;99.90;;;;;;6162439;28;20054;-78
2020/12/31 10:28:52;;;;;;;5.78;4.35;;;2.90;99.90;;;;;;6156089;28;20095;-78
2020/12/31 10:31:55;;;;;;;6.37;4.47;;;2.90;99.90;;;;;;6166326;28;20539;-77
2020/12/31 10:34:57;;;;;;;7.33;5.13;;;2.90;99.90;;;;;;6155339;28;20047;-78
2020/12/31 10:37:58;;;;;;;7.78;4.68;;;2.90;99.90;;;;;;6164997;28;20046;-77
2020/12/31 10:40:59;;;;;;;6.90;5.68;;;2.90;99.90;;;;;;6150315;28;20125;-77
2020/12/31 10:44:01;;;;;;;5.53;4.68;;;3.00;99.90;;;;;;6166478;28;20419;-78
2020/12/31 10:47:03;;;;;;;5.63;4.43;;;3.00;99.90;;;;;;6157257;28;20062;-78
2020/12/31 10:50:05;;;;;;;8.60;4.25;;;3.00;99.90;;;;;;6160443;28;20044;-78
2020/12/31 10:53:07;;;;;;;7.95;5.50;;;3.00;99.90;;;;;;6156461;28;20119;-76
2020/12/31 10:56:08;;;;;;;7.78;6.03;;;3.00;99.90;;;;;;6155975;28;20534;-78
2020/12/31 10:59:09;;;;;;;7.40;5.68;;;2.90;99.90;;;;;;6162465;28;20501;-76
2020/12/31 11:02:12;;;;;;;5.95;4.40;;;2.80;99.90;;;;;;6158244;28;20138;-77
2020/12/31 11:05:15;;;;;;;6.80;4.43;;;2.70;99.90;;;;;;6169108;28;20062;-78
2020/12/31 11:08:17;;;;;;;7.30;5.37;;;2.60;99.90;;;;;;6168712;28;20046;-78
2020/12/31 11:11:21;;;;;;;6.33;5.27;;;2.60;99.90;;;;;;6167863;28;20535;-78
2020/12/31 11:14:22;;;;;;;6.20;5.60;;;2.60;99.90;;;;;;6158462;28;20094;-78
2020/12/31 11:17:25;;;;;;;9.13;5.50;;;2.50;99.90;;;;;;6167471;28;20058;-78
2020/12/31 11:20:26;;;;;;;8.07;6.80;;;2.50;99.90;;;;;;6166710;28;20062;-78
2020/12/31 11:23:27;;;;;;;8.07;6.27;;;2.50;99.90;;;;;;6165869;28;20054;-77
2020/12/31 11:26:29;;;;;;;8.43;5.87;;;2.50;99.90;;;;;;6161869;28;20051;-79
2020/12/31 11:29:30;;;;;;;13.90;8.10;;;2.60;99.90;;;;;;6161921;28;20054;-77
2020/12/31 11:32:36;;;;;;;7.57;5.13;;;2.70;99.90;;;;;;6168767;28;20106;-78
2020/12/31 11:35:37;;;;;;;7.10;5.40;;;2.70;99.90;;;;;;6178342;28;20141;-78
2020/12/31 11:38:39;;;;;;;7.20;5.40;;;2.60;99.90;;;;;;6172070;28;20054;-78
2020/12/31 11:41:40;;;;;;;10.37;5.37;;;2.60;99.90;;;;;;6162245;28;20125;-78
2020/12/31 11:44:41;;;;;;;20.57;5.67;;;2.50;99.90;;;;;;6162024;28;20042;-77
2020/12/31 11:47:44;;;;;;;12.77;6.40;;;2.40;99.90;;;;;;6165083;28;20592;-77
2020/12/31 11:50:45;;;;;;;10.70;6.53;;;2.40;99.90;;;;;;6165351;28;20437;-77
2020/12/31 11:53:46;;;;;;;11.17;8.63;;;2.40;99.90;;;;;;6172704;28;20129;-80
2020/12/31 11:56:48;;;;;;;12.50;7.87;;;2.50;99.90;;;;;;6164426;28;20061;-77
2020/12/31 11:59:49;;;;;;;12.77;8.90;;;2.60;99.90;;;;;;6170000;28;20079;-77
2020/12/31 12:02:51;;;;;;;15.20;9.20;;;2.60;99.90;;;;;;6166903;28;20055;-77
2020/12/31 12:05:53;;;;;;;18.67;9.38;;;2.80;99.90;;;;;;6163413;28;20062;-77
2020/12/31 12:08:54;;;;;;;38.60;19.03;;;2.90;99.90;;;;;;6170347;28;20130;-78
2020/12/31 12:11:55;;;;;;;26.45;16.50;;;2.90;99.90;;;;;;6165983;28;20058;-80
2020/12/31 12:14:57;;;;;;;25.75;12.15;;;3.00;99.90;;;;;;6159914;28;20051;-78
2020/12/31 12:17:59;;;;;;;34.83;17.50;;;2.90;99.90;;;;;;6170825;28;20046;-79
2020/12/31 12:21:00;;;;;;;18.93;12.03;;;2.90;99.90;;;;;;6171169;28;23103;-80
2020/12/31 12:24:02;;;;;;;15.50;10.77;;;2.80;99.90;;;;;;6168450;28;20134;-79
2020/12/31 12:27:03;;;;;;;16.57;11.10;;;2.90;99.90;;;;;;6158510;28;20046;-79
2020/12/31 12:30:09;;;;;;;18.80;11.30;;;2.90;99.90;;;;;;6172511;28;20544;-77
2020/12/31 12:33:12;;;;;;;15.55;9.27;;;3.00;99.90;;;;;;6173579;28;20117;-77
2020/12/31 12:36:13;;;;;;;13.50;10.20;;;3.00;99.90;;;;;;6166834;28;20493;-78
2020/12/31 12:39:14;;;;;;;16.42;12.23;;;3.10;99.90;;;;;;6160804;28;20059;-79
2020/12/31 12:42:15;;;;;;;18.08;11.70;;;3.20;99.90;;;;;;6165454;28;20145;-78
2020/12/31 12:45:17;;;;;;;16.63;10.93;;;3.20;99.90;;;;;;6176048;28;20546;-78
2020/12/31 12:48:19;;;;;;;30.30;15.32;;;3.30;99.90;;;;;;6159404;28;20058;-78
2020/12/31 12:51:20;;;;;;;51.30;22.97;;;3.30;99.90;;;;;;6168656;28;20086;-80
2020/12/31 12:54:22;;;;;;;35.77;18.33;;;3.40;99.90;;;;;;6167936;28;20069;-79
2020/12/31 12:57:23;;;;;;;30.50;15.77;;;3.40;99.90;;;;;;6172453;28;20062;-78
2020/12/31 13:00:24;;;;;;;31.88;17.05;;;3.40;99.90;;;;;;6166973;28;20051;-78
2020/12/31 13:03:27;;;;;;;28.77;17.05;;;3.40;99.90;;;;;;6164963;28;20101;-79
2020/12/31 13:06:28;;;;;;;27.60;15.43;;;3.40;99.90;;;;;;6169840;28;20042;-79
2020/12/31 13:09:29;;;;;;;24.65;15.48;;;3.50;99.90;;;;;;6169576;28;20129;-78
2020/12/31 13:12:31;;;;;;;28.48;14.63;;;3.60;99.90;;;;;;6163718;28;20134;-79
2020/12/31 13:15:33;;;;;;;23.23;13.55;;;3.70;99.90;;;;;;6167880;28;20061;-78
2020/12/31 13:18:35;;;;;;;22.65;15.35;;;3.70;99.90;;;;;;6168772;28;20053;-78
2020/12/31 13:21:38;;;;;;;28.42;21.48;;;3.70;99.90;;;;;;6166807;28;20517;-79
2020/12/31 13:24:40;;;;;;;30.33;19.50;;;3.70;99.90;;;;;;6165027;28;20051;-78
2020/12/31 13:27:41;;;;;;;23.67;14.60;;;3.70;99.90;;;;;;6164750;28;20146;-78
2020/12/31 13:30:42;;;;;;;20.50;11.65;;;3.90;99.90;;;;;;6168794;28;20062;-78
2020/12/31 13:33:44;;;;;;;21.63;11.30;;;4.00;99.90;;;;;;6161360;28;20046;-77
2020/12/31 13:36:49;;;;;;;16.35;11.10;;;4.20;99.90;;;;;;6174196;28;20126;-78
2020/12/31 13:39:51;;;;;;;16.83;11.38;;;4.20;99.90;;;;;;6169897;28;20057;-78
2020/12/31 13:42:52;;;;;;;16.83;11.68;;;4.20;99.90;;;;;;6169129;28;20054;-78
2020/12/31 13:45:53;;;;;;;18.85;11.85;;;4.20;99.90;;;;;;6165810;28;20130;-78
2020/12/31 13:48:56;;;;;;;13.10;11.20;;;4.20;99.90;;;;;;6163597;28;20145;-78
2020/12/31 13:51:57;;;;;;;17.30;13.40;;;4.20;99.90;;;;;;6158215;28;20130;-78
2020/12/31 13:54:58;;;;;;;17.98;12.38;;;4.20;99.90;;;;;;6163357;28;20047;-79
2020/12/31 13:57:59;;;;;;;16.00;9.10;;;4.20;99.90;;;;;;6173314;28;20043;-78
2020/12/31 14:01:01;;;;;;;14.25;10.23;;;4.20;99.90;;;;;;6157593;28;20061;-77
2020/12/31 14:04:07;;;;;;;13.10;9.77;;;4.10;99.90;;;;;;6155888;28;20060;-78
2020/12/31 14:07:08;;;;;;;18.83;9.88;;;4.10;99.90;;;;;;6166530;28;20054;-78
2020/12/31 14:10:11;;;;;;;15.45;9.68;;;4.20;99.90;;;;;;6162786;28;20066;-78
2020/12/31 14:13:13;;;;;;;13.95;10.70;;;4.20;99.90;;;;;;6166985;28;20420;-78
2020/12/31 14:16:18;;;;;;;21.10;11.90;;;4.20;99.90;;;;;;6167148;28;20130;-78
2020/12/31 14:19:24;;;;;;;21.02;12.65;;;4.20;99.90;;;;;;6168815;28;20058;-77
2020/12/31 14:22:25;;;;;;;14.65;9.80;;;4.20;99.90;;;;;;6163734;28;20523;-78
2020/12/31 14:25:27;;;;;;;15.25;10.93;;;4.20;99.90;;;;;;6162431;28;20146;-78
2020/12/31 14:28:28;;;;;;;15.70;11.05;;;4.20;99.90;;;;;;6159347;28;20054;-77
2020/12/31 14:31:33;;;;;;;12.25;10.85;;;4.20;99.90;;;;;;6162224;28;20051;-77
2020/12/31 14:34:35;;;;;;;21.50;10.07;;;4.20;99.90;;;;;;6166285;28;20043;-78
2020/12/31 14:37:37;;;;;;;16.92;10.60;;;4.20;99.90;;;;;;6170731;28;20449;-77
2020/12/31 14:40:38;;;;;;;21.40;14.88;;;4.20;99.90;;;;;;6158463;28;20047;-77
2020/12/31 14:43:40;;;;;;;20.70;11.52;;;4.10;99.90;;;;;;6152397;28;20051;-77
2020/12/31 14:46:45;;;;;;;17.05;10.65;;;4.10;99.90;;;;;;6158415;28;20047;-77
2020/12/31 14:49:47;;;;;;;24.98;17.25;;;4.10;99.90;;;;;;6164749;28;20167;-77
2020/12/31 14:52:48;;;;;;;17.88;13.85;;;4.10;99.90;;;;;;6168724;28;20138;-78
2020/12/31 14:55:50;;;;;;;18.90;12.93;;;4.10;99.90;;;;;;6160781;28;20480;-77
2020/12/31 14:58:51;;;;;;;18.35;13.25;;;4.10;99.90;;;;;;6160567;28;20054;-77
2020/12/31 15:01:53;;;;;;;18.75;13.50;;;4.20;99.90;;;;;;6159402;28;20870;-78
2020/12/31 15:04:55;;;;;;;21.83;15.00;;;4.20;99.90;;;;;;6161421;28;20137;-77
2020/12/31 15:07:56;;;;;;;20.27;11.38;;;4.20;99.90;;;;;;6167194;28;20133;-78
2020/12/31 15:10:58;;;;;;;18.80;11.25;;;4.20;99.90;;;;;;6157124;28;20067;-78
2020/12/31 15:13:59;;;;;;;24.67;12.55;;;4.10;99.90;;;;;;6159551;28;20047;-78
2020/12/31 15:17:00;;;;;;;17.35;12.95;;;4.10;99.90;;;;;;6163787;28;20049;-77
2020/12/31 15:20:03;;;;;;;19.02;14.02;;;4.00;99.90;;;;;;6164615;28;20051;-77
2020/12/31 15:23:04;;;;;;;18.90;11.88;;;4.00;99.90;;;;;;6163471;28;20122;-77
2020/12/31 15:26:06;;;;;;;18.02;12.48;;;3.90;99.90;;;;;;6168262;28;20055;-77
2020/12/31 15:29:09;;;;;;;16.88;11.15;;;3.90;99.90;;;;;;6160527;28;20051;-77
2020/12/31 15:32:10;;;;;;;21.88;13.45;;;3.90;99.90;;;;;;6171308;28;20046;-77
2020/12/31 15:35:13;;;;;;;20.48;10.82;;;3.80;99.90;;;;;;6164249;28;20452;-77
2020/12/31 15:38:14;;;;;;;22.45;12.48;;;3.80;99.90;;;;;;6169354;28;20053;-77
2020/12/31 15:41:16;;;;;;;19.70;12.85;;;3.70;99.90;;;;;;6160222;28;20051;-78
2020/12/31 15:44:17;;;;;;;20.35;11.95;;;3.60;99.90;;;;;;6158596;28;20133;-77
2020/12/31 15:47:21;;;;;;;22.48;13.00;;;3.60;99.90;;;;;;6168086;28;20138;-79
2020/12/31 15:50:24;;;;;;;23.58;14.63;;;3.60;99.90;;;;;;6168227;28;20146;-78
2020/12/31 15:53:25;;;;;;;16.77;11.05;;;3.60;99.90;;;;;;6168250;28;20084;-80